Time;durP1;ratioP1;P1;durP2;ratioP2;P2;SDS_P1;SDS_P2;PMS_P1;PMS_P2;Temp;Humidity;BMP_temperature;BMP_pressure;BME280_temperature;BME280_humidity;BME280_pressure;Samples;Min_cycle;Max_cycle;Signal;HPM_P1;HPM_P2
2023/11/09 00:01:06;;;;;;;2.55;1.40;;;;;;;11.28;75.40;98616.75;4965240;28;20134;-75
2023/11/09 00:03:33;;;;;;;2.30;1.15;;;;;;;11.27;75.54;98617.69;4952986;28;20051;-75
2023/11/09 00:05:59;;;;;;;2.13;1.40;;;;;;;11.26;75.59;98615.19;4962664;28;20436;-75
2023/11/09 00:08:27;;;;;;;2.28;1.48;;;;;;;11.25;75.74;98621.41;4971386;28;20054;-75
2023/11/09 00:10:53;;;;;;;4.88;1.50;;;;;;;11.24;75.60;98607.41;4968784;28;20106;-75
2023/11/09 00:13:20;;;;;;;2.55;1.58;;;;;;;11.21;75.51;98607.63;4960006;28;20101;-74
2023/11/09 00:15:47;;;;;;;2.55;1.38;;;;;;;11.20;76.13;98606.81;4963486;28;20057;-74
2023/11/09 00:18:21;;;;;;;3.50;1.60;;;;;;;11.19;76.00;98599.88;4960367;28;20420;-76
2023/11/09 00:20:49;;;;;;;2.60;1.65;;;;;;;11.19;76.17;98604.28;4968313;28;20134;-74
2023/11/09 00:23:15;;;;;;;3.67;1.60;;;;;;;11.19;76.12;98599.03;4966782;28;20048;-77
2023/11/09 00:25:42;;;;;;;2.20;1.50;;;;;;;11.19;76.33;98593.75;4952381;28;20062;-74
2023/11/09 00:28:09;;;;;;;4.35;1.70;;;;;;;11.17;76.12;98588.59;4958771;28;20055;-74
2023/11/09 00:30:36;;;;;;;1.58;1.40;;;;;;;11.17;76.28;98590.38;4963158;28;20481;-73
2023/11/09 00:33:02;;;;;;;1.90;1.63;;;;;;;11.16;76.38;98584.31;4956570;28;20129;-75
2023/11/09 00:35:29;;;;;;;2.40;1.60;;;;;;;11.15;76.67;98581.78;4956360;28;20078;-73
2023/11/09 00:37:57;;;;;;;3.72;1.80;;;;;;;11.15;76.63;98582.63;4953952;28;20103;-74
2023/11/09 00:40:24;;;;;;;2.47;1.67;;;;;;;11.15;76.72;98571.25;4958256;28;20121;-74
2023/11/09 00:42:51;;;;;;;1.95;1.65;;;;;;;11.14;76.80;98578.31;4955521;28;20051;-75
2023/11/09 00:45:18;;;;;;;1.83;1.30;;;;;;;11.15;77.00;98573.88;4972323;28;20085;-73
2023/11/09 00:47:45;;;;;;;3.42;1.73;;;;;;;11.13;77.02;98568.72;4958455;28;20055;-75
2023/11/09 00:50:13;;;;;;;2.55;1.67;;;;;;;11.13;77.05;98566.09;4955668;28;20139;-73
2023/11/09 00:52:40;;;;;;;3.50;1.45;;;;;;;11.12;77.11;98553.03;4956889;28;20039;-74
2023/11/09 00:55:07;;;;;;;2.85;1.60;;;;;;;11.12;77.21;98558.31;4970937;28;20047;-74
2023/11/09 00:57:34;;;;;;;3.47;1.75;;;;;;;11.12;77.41;98553.03;4962015;28;20098;-73
2023/11/09 01:00:02;;;;;;;2.05;1.50;;;;;;;11.13;77.43;98549.44;4963734;28;20046;-73
2023/11/09 01:02:34;;;;;;;2.35;1.50;;;;;;;11.14;77.54;98548.50;4955818;28;20047;-73
2023/11/09 01:05:00;;;;;;;2.60;1.40;;;;;;;11.15;77.79;98534.38;4970987;28;20535;-73
2023/11/09 01:07:27;;;;;;;4.70;1.58;;;;;;;11.15;77.54;98532.59;4974611;28;20047;-73
2023/11/09 01:09:54;;;;;;;2.03;1.48;;;;;;;11.16;77.67;98531.63;4974177;28;20050;-72
2023/11/09 01:12:21;;;;;;;4.38;1.90;;;;;;;11.17;77.63;98541.19;4973041;28;20058;-75
2023/11/09 01:14:47;;;;;;;2.70;1.60;;;;;;;11.19;77.57;98530.53;4966256;28;20499;-75
2023/11/09 01:17:14;;;;;;;2.92;1.80;;;;;;;11.20;77.68;98521.66;4962465;28;20138;-74
2023/11/09 01:19:40;;;;;;;2.20;1.67;;;;;;;11.20;77.60;98530.44;4958076;28;20488;-73
2023/11/09 01:22:07;;;;;;;1.92;1.70;;;;;;;11.21;77.70;98526.81;4956360;28;20043;-75
2023/11/09 01:24:34;;;;;;;7.05;2.08;;;;;;;11.21;77.84;98518.91;4970822;28;20464;-73
2023/11/09 01:27:00;;;;;;;3.78;2.20;;;;;;;11.23;77.70;98525.84;4966326;28;20126;-73
2023/11/09 01:29:27;;;;;;;3.70;1.92;;;;;;;11.25;77.70;98513.41;4961090;28;20058;-73
2023/11/09 01:31:57;;;;;;;2.08;1.88;;;;;;;11.24;77.79;98509.09;4973876;28;20525;-74
2023/11/09 01:34:24;;;;;;;3.40;1.98;;;;;;;11.24;77.55;98507.31;4961166;28;20059;-74
2023/11/09 01:36:53;;;;;;;2.95;2.50;;;;;;;11.25;77.86;98508.97;4960180;28;20054;-73
2023/11/09 01:39:22;;;;;;;2.67;1.98;;;;;;;11.26;77.79;98504.53;4968973;28;20051;-73
2023/11/09 01:41:49;;;;;;;4.35;2.00;;;;;;;11.26;78.04;98500.13;4966182;28;20492;-74
2023/11/09 01:44:16;;;;;;;3.67;2.20;;;;;;;11.26;78.07;98492.22;4955357;28;20523;-73
2023/11/09 01:46:44;;;;;;;3.65;1.83;;;;;;;11.27;78.01;98496.53;4956246;28;20186;-75
2023/11/09 01:49:12;;;;;;;2.65;1.83;;;;;;;11.29;77.97;98484.06;4963636;28;20126;-73
2023/11/09 01:51:42;;;;;;;3.03;1.90;;;;;;;11.30;77.89;98491.03;4953665;28;20129;-74
2023/11/09 01:54:11;;;;;;;2.50;2.10;;;;;;;11.32;77.92;98483.81;4954418;28;20062;-76
2023/11/09 01:56:38;;;;;;;3.13;1.90;;;;;;;11.33;78.15;98477.56;4953468;28;20051;-73
2023/11/09 01:59:07;;;;;;;2.80;1.98;;;;;;;11.33;77.84;98464.41;4971741;28;20051;-73
2023/11/09 02:01:35;;;;;;;4.20;2.03;;;;;;;11.33;78.02;98467.03;4959692;28;20063;-75
2023/11/09 02:04:03;;;;;;;3.63;1.95;;;;;;;11.34;77.86;98459.97;4955164;28;20065;-73
2023/11/09 02:06:30;;;;;;;4.75;2.20;;;;;;;11.35;77.90;98459.03;4955031;28;20047;-74
2023/11/09 02:08:58;;;;;;;1.90;1.65;;;;;;;11.36;77.83;98457.22;4961086;28;20050;-74
2023/11/09 02:11:25;;;;;;;3.80;1.90;;;;;;;11.36;77.72;98450.16;4961097;28;20054;-76
2023/11/09 02:13:52;;;;;;;3.63;2.08;;;;;;;11.36;77.78;98451.97;4964917;28;20055;-75
2023/11/09 02:16:18;;;;;;;5.80;2.10;;;;;;;11.34;77.88;98447.63;4954794;28;20543;-74
2023/11/09 02:18:45;;;;;;;2.15;1.70;;;;;;;11.35;77.87;98445.84;4962235;28;20054;-73
2023/11/09 02:21:14;;;;;;;2.22;1.73;;;;;;;11.37;78.04;98443.09;4966521;28;20054;-73
2023/11/09 02:23:47;;;;;;;3.70;2.10;;;;;;;11.37;77.97;98427.28;4958951;28;20086;-73
2023/11/09 02:26:14;;;;;;;3.83;1.80;;;;;;;11.37;78.17;98436.03;4972995;28;20046;-74
2023/11/09 02:28:40;;;;;;;2.30;2.10;;;;;;;11.37;77.83;98430.75;4959017;28;20079;-73
2023/11/09 02:31:07;;;;;;;1.85;1.70;;;;;;;11.39;77.92;98425.34;4954491;28;20138;-74
2023/11/09 02:33:33;;;;;;;4.18;2.15;;;;;;;11.38;77.95;98419.25;4954515;28;20043;-74
2023/11/09 02:36:00;;;;;;;5.75;2.20;;;;;;;11.37;77.81;98422.84;4963135;28;20480;-74
2023/11/09 02:38:27;;;;;;;1.90;1.67;;;;;;;11.37;77.99;98404.41;4960103;28;20142;-74
2023/11/09 02:40:53;;;;;;;2.88;1.83;;;;;;;11.37;78.04;98407.06;4954437;28;20047;-73
2023/11/09 02:43:20;;;;;;;3.47;2.00;;;;;;;11.36;78.12;98408.00;4954241;28;20102;-75
2023/11/09 02:45:46;;;;;;;2.05;1.85;;;;;;;11.36;78.31;98400.09;4958771;28;20093;-74
2023/11/09 02:48:13;;;;;;;7.50;2.15;;;;;;;11.38;78.23;98405.22;4964631;28;20071;-74
2023/11/09 02:50:39;;;;;;;2.28;1.95;;;;;;;11.38;78.14;98400.81;4969782;28;20399;-73
2023/11/09 02:53:07;;;;;;;2.13;1.85;;;;;;;11.39;78.25;98404.25;4955431;28;20123;-73
2023/11/09 02:55:34;;;;;;;2.60;2.08;;;;;;;11.39;78.09;98399.84;4959061;28;20094;-74
2023/11/09 02:58:00;;;;;;;2.55;1.88;;;;;;;11.40;78.27;98396.25;4962494;28;20047;-73
2023/11/09 03:00:27;;;;;;;2.63;1.88;;;;;;;11.40;78.22;98390.16;4966426;28;20090;-74
2023/11/09 03:02:54;;;;;;;2.55;2.03;;;;;;;11.40;78.32;98385.69;4972264;28;20049;-73
2023/11/09 03:05:22;;;;;;;3.08;2.08;;;;;;;11.41;78.27;98376.84;4972771;28;20047;-73
2023/11/09 03:07:49;;;;;;;2.78;1.95;;;;;;;11.43;78.24;98374.06;4971659;28;20058;-74
2023/11/09 03:10:16;;;;;;;5.35;2.13;;;;;;;11.43;78.29;98367.00;4960256;28;20453;-74
2023/11/09 03:12:43;;;;;;;3.55;2.38;;;;;;;11.44;78.17;98370.50;4965324;28;20058;-75
2023/11/09 03:15:10;;;;;;;2.15;1.95;;;;;;;11.44;78.19;98363.41;4953577;28;20090;-74
2023/11/09 03:17:43;;;;;;;4.10;2.20;;;;;;;11.41;78.22;98357.56;4961159;28;20047;-73
2023/11/09 03:20:11;;;;;;;3.05;2.25;;;;;;;11.44;78.05;98365.22;4953939;28;20059;-75
2023/11/09 03:22:39;;;;;;;2.28;1.98;;;;;;;11.43;78.20;98355.63;4953661;28;20050;-73
2023/11/09 03:25:07;;;;;;;2.35;2.15;;;;;;;11.43;78.38;98359.09;4967616;28;20115;-73
2023/11/09 03:27:33;;;;;;;2.85;1.70;;;;;;;11.44;78.34;98352.06;4953870;28;20047;-75
2023/11/09 03:30:00;;;;;;;3.05;2.28;;;;;;;11.44;78.29;98341.50;4954679;28;20043;-74
2023/11/09 03:32:27;;;;;;;2.78;2.00;;;;;;;11.42;78.37;98331.09;4961814;28;20054;-73
2023/11/09 03:37:23;;;;;;;2.65;2.08;;;;;;;11.43;78.46;98332.75;4905789;29;20052;-84
2023/11/09 03:39:51;;;;;;;2.13;1.75;;;;;;;11.43;78.47;98324.00;4915033;29;20087;-84
2023/11/09 03:42:17;;;;;;;4.35;2.00;;;;;;;11.43;78.64;98319.59;4901345;29;20079;-82
2023/11/09 03:44:46;;;;;;;2.67;1.65;;;;;;;11.43;78.57;98324.84;4914503;29;20055;-83
2023/11/09 03:47:13;;;;;;;2.30;2.10;;;;;;;11.44;78.63;98326.53;4914230;29;20075;-82
2023/11/09 03:49:43;;;;;;;2.33;2.10;;;;;;;11.45;78.71;98312.38;4914596;29;20580;-83
2023/11/09 03:52:09;;;;;;;2.20;2.00;;;;;;;11.46;78.70;98310.59;4912586;29;20099;-83
2023/11/09 03:54:36;;;;;;;2.17;1.98;;;;;;;11.47;78.46;98313.09;4896537;29;20131;-84
2023/11/09 03:57:03;;;;;;;4.28;2.10;;;;;;;11.47;78.54;98312.25;4911528;29;20056;-83
2023/11/09 03:59:30;;;;;;;2.25;2.00;;;;;;;11.47;78.51;98306.97;4913568;29;20082;-84
2023/11/09 04:01:57;;;;;;;3.10;1.90;;;;;;;11.47;78.68;98302.56;4912652;29;20107;-83
2023/11/09 04:04:23;;;;;;;2.17;1.98;;;;;;;11.47;78.70;98301.72;4896127;29;20061;-82
2023/11/09 04:06:50;;;;;;;2.80;1.95;;;;;;;11.49;78.70;98298.94;4895978;29;20152;-83
2023/11/09 04:09:18;;;;;;;2.53;2.10;;;;;;;11.47;78.58;98306.97;4913996;29;20512;-84
2023/11/09 04:11:46;;;;;;;5.45;1.83;;;;;;;11.47;78.51;98301.72;4912845;29;20174;-82
2023/11/09 04:14:13;;;;;;;2.83;1.90;;;;;;;11.46;78.70;98310.59;4913104;29;20048;-82
2023/11/09 04:16:39;;;;;;;3.28;2.25;;;;;;;11.46;78.66;98297.41;4914446;29;20104;-83
2023/11/09 04:19:07;;;;;;;3.50;2.05;;;;;;;11.46;78.70;98293.00;4915379;29;20585;-84
2023/11/09 04:21:35;;;;;;;2.83;1.98;;;;;;;11.46;78.86;98303.53;4916591;29;20052;-84
2023/11/09 04:24:02;;;;;;;2.85;2.25;;;;;;;11.47;78.96;98296.44;4902057;29;20060;-84
2023/11/09 04:26:32;;;;;;;5.22;1.80;;;;;;;11.46;78.97;98290.34;4903581;29;20048;-84
2023/11/09 04:29:00;;;;;;;2.50;1.77;;;;;;;11.48;78.83;98292.88;4917310;29;20537;-83
2023/11/09 04:31:28;;;;;;;2.85;1.77;;;;;;;11.47;78.76;98288.53;4917511;29;20537;-85
2023/11/09 04:34:03;;;;;;;4.07;2.10;;;;;;;11.47;78.89;98291.16;4910143;29;20056;-82
2023/11/09 04:36:31;;;;;;;3.80;2.20;;;;;;;11.49;78.85;98291.03;4918035;29;20374;-82
2023/11/09 04:38:58;;;;;;;5.07;2.05;;;;;;;11.49;78.85;98294.53;4916353;29;20044;-82
2023/11/09 04:41:25;;;;;;;4.50;2.10;;;;;;;11.49;79.00;98294.53;4902668;29;20108;-82
2023/11/09 04:43:54;;;;;;;3.95;2.28;;;;;;;11.49;78.81;98289.25;4917583;29;20489;-83
2023/11/09 04:46:23;;;;;;;3.28;2.20;;;;;;;11.50;79.04;98288.28;4899635;29;20054;-82
2023/11/09 04:48:55;;;;;;;3.67;2.30;;;;;;;11.51;79.08;98268.88;4898016;29;20079;-83
2023/11/09 04:51:22;;;;;;;4.15;2.08;;;;;;;11.51;78.95;98287.31;4908031;29;20054;-82
2023/11/09 04:53:52;;;;;;;2.13;1.88;;;;;;;11.52;78.91;98288.16;4918003;29;20104;-83
2023/11/09 05:07:30;;;;;;;3.92;1.95;;;;;;;11.51;79.29;98276.78;4913758;29;20052;-83
2023/11/09 05:09:57;;;;;;;6.22;2.42;;;;;;;11.51;79.33;98282.03;4905906;29;20059;-83
2023/11/09 05:12:24;;;;;;;1.95;1.83;;;;;;;11.51;79.18;98271.50;4917012;29;20119;-82
2023/11/09 05:14:52;;;;;;;2.53;1.92;;;;;;;11.52;79.16;98272.34;4916019;29;20781;-83
2023/11/09 05:17:22;;;;;;;2.33;1.92;;;;;;;11.52;79.21;98267.06;4898341;29;20048;-82
2023/11/09 05:19:50;;;;;;;2.28;1.95;;;;;;;11.52;79.33;98259.16;4906140;29;20519;-83
2023/11/09 05:22:18;;;;;;;1.98;1.73;;;;;;;11.52;79.25;98264.44;4898429;29;20052;-86
2023/11/09 05:24:45;;;;;;;2.25;2.00;;;;;;;11.53;79.29;98266.94;4899067;29;20052;-82
2023/11/09 05:27:11;;;;;;;4.43;2.22;;;;;;;11.53;79.25;98274.84;4899092;29;20051;-82
2023/11/09 05:29:38;;;;;;;2.90;1.58;;;;;;;11.54;79.31;98262.50;4909111;29;20051;-84
2023/11/09 05:32:09;;;;;;;1.67;1.58;;;;;;;11.54;79.07;98263.34;4916358;29;20052;-82
2023/11/09 05:34:36;;;;;;;2.15;1.73;;;;;;;11.54;79.37;98260.72;4898524;29;20154;-82
2023/11/09 05:37:03;;;;;;;3.63;1.67;;;;;;;11.55;79.31;98267.63;4906365;29;20516;-82
2023/11/09 05:39:31;;;;;;;1.77;1.63;;;;;;;11.55;79.22;98266.81;4916467;29;20052;-82
2023/11/09 05:41:59;;;;;;;2.70;1.80;;;;;;;11.55;79.27;98267.63;4916187;29;20719;-82
2023/11/09 05:44:26;;;;;;;2.95;2.00;;;;;;;11.55;79.46;98262.38;4899002;29;20115;-82
2023/11/09 05:46:56;;;;;;;2.50;1.80;;;;;;;11.56;79.44;98263.22;4898325;29;20447;-83
2023/11/09 05:49:23;;;;;;;2.53;1.80;;;;;;;11.56;79.37;98271.94;4898610;29;20057;-83
2023/11/09 05:51:50;;;;;;;2.60;1.95;;;;;;;11.54;79.31;98265.97;4903910;29;20048;-82
2023/11/09 05:54:18;;;;;;;2.17;1.70;;;;;;;11.55;79.25;98270.28;4906808;29;20494;-83
2023/11/09 05:56:45;;;;;;;3.97;2.17;;;;;;;11.54;79.50;98262.50;4903095;29;20040;-82
2023/11/09 05:59:12;;;;;;;2.10;1.83;;;;;;;11.54;79.58;98255.44;4916115;29;20060;-87
2023/11/09 06:01:42;;;;;;;2.35;1.95;;;;;;;11.56;79.65;98264.03;4915959;29;20493;-82
2023/11/09 06:04:09;;;;;;;2.38;1.90;;;;;;;11.57;79.75;98264.88;4900491;29;20052;-83
2023/11/09 06:06:37;;;;;;;1.63;1.52;;;;;;;11.58;79.58;98258.63;4898133;29;20052;-81
2023/11/09 06:09:06;;;;;;;3.50;1.90;;;;;;;11.59;79.61;98263.78;4897942;29;20045;-82
2023/11/09 06:11:34;;;;;;;2.38;1.92;;;;;;;11.60;79.59;98257.53;4900782;29;20052;-83
2023/11/09 06:14:03;;;;;;;2.70;1.80;;;;;;;11.60;79.37;98268.06;4915759;29;20051;-82
2023/11/09 06:16:31;;;;;;;3.58;1.60;;;;;;;11.60;79.45;98260.16;4915201;29;20397;-82
2023/11/09 06:18:58;;;;;;;3.65;1.80;;;;;;;11.59;79.57;98261.13;4900443;29;20060;-81
2023/11/09 06:21:24;;;;;;;1.60;1.50;;;;;;;11.59;79.74;98258.50;4895909;29;20056;-81
2023/11/09 06:23:52;;;;;;;1.42;1.33;;;;;;;11.60;79.68;98264.63;4897295;29;20108;-82
2023/11/09 06:26:22;;;;;;;2.10;1.83;;;;;;;11.59;79.63;98263.78;4897397;29;20063;-81
2023/11/09 06:28:52;;;;;;;1.92;1.48;;;;;;;11.60;79.75;98270.72;4897324;29;20135;-80
2023/11/09 06:31:21;;;;;;;2.15;1.55;;;;;;;11.62;79.67;98264.50;4896666;29;20084;-80
2023/11/09 06:33:51;;;;;;;1.83;1.40;;;;;;;11.63;79.85;98285.47;4896915;29;20478;-81
2023/11/09 06:36:19;;;;;;;1.45;1.35;;;;;;;11.63;79.70;98276.69;4897270;29;20056;-82
2023/11/09 06:38:47;;;;;;;1.77;1.40;;;;;;;11.63;79.50;98279.34;4896470;29;20062;-86
2023/11/09 06:41:14;;;;;;;2.67;1.50;;;;;;;11.63;79.76;98279.34;4904398;29;20085;-85
2023/11/09 06:43:41;;;;;;;1.27;1.17;;;;;;;11.64;79.73;98273.09;4915368;29;20134;-85
2023/11/09 06:46:08;;;;;;;1.95;1.75;;;;;;;11.64;79.84;98271.31;4915929;29;20052;-85
2023/11/09 06:48:34;;;;;;;1.90;1.77;;;;;;;11.67;79.69;98278.13;4916201;29;20055;-83
2023/11/09 06:51:03;;;;;;;1.80;1.50;;;;;;;11.65;79.79;98275.59;4915721;29;20048;-84
2023/11/09 06:53:30;;;;;;;2.08;1.88;;;;;;;11.66;79.80;98284.34;4915547;29;20063;-84
2023/11/09 06:55:56;;;;;;;2.55;1.90;;;;;;;11.66;79.70;98284.34;4915570;29;20052;-84
2023/11/09 06:58:24;;;;;;;2.53;1.92;;;;;;;11.66;79.94;98300.16;4913870;29;20084;-83
2023/11/09 07:00:51;;;;;;;2.13;1.92;;;;;;;11.66;79.80;98300.16;4913741;29;20092;-83
2023/11/09 07:03:19;;;;;;;4.07;2.20;;;;;;;11.66;79.93;98294.91;4915241;29;20052;-86
2023/11/09 07:05:46;;;;;;;2.38;2.17;;;;;;;11.66;80.05;98295.72;4915011;29;20127;-86
2023/11/09 07:08:12;;;;;;;2.13;2.03;;;;;;;11.68;79.86;98274.50;4915942;29;20059;-84
2023/11/09 07:10:40;;;;;;;2.42;2.03;;;;;;;11.67;80.02;98280.75;4914613;29;20063;-83
2023/11/09 07:13:06;;;;;;;2.28;2.08;;;;;;;11.69;79.80;98276.16;4907390;29;20048;-85
2023/11/09 07:15:33;;;;;;;2.17;1.98;;;;;;;11.69;79.83;98286.72;4915371;29;20055;-84
2023/11/09 07:18:03;;;;;;;2.58;2.38;;;;;;;11.69;79.60;98284.06;4908433;29;20059;-84
2023/11/09 07:20:33;;;;;;;5.57;2.38;;;;;;;11.69;79.82;98303.38;4905025;29;20056;-84
2023/11/09 07:23:06;;;;;;;2.80;2.22;;;;;;;11.68;79.82;98301.72;4897287;29;20135;-84
2023/11/09 07:25:34;;;;;;;4.05;2.35;;;;;;;11.71;80.01;98305.88;4906298;29;20051;-83
2023/11/09 07:28:00;;;;;;;4.32;2.25;;;;;;;11.71;80.00;98309.34;4915443;29;20131;-83
2023/11/09 07:30:31;;;;;;;2.78;2.20;;;;;;;11.72;80.00;98318.09;4907994;29;20127;-84
2023/11/09 07:33:02;;;;;;;2.58;2.38;;;;;;;11.73;79.90;98309.19;4914471;29;20060;-84
2023/11/09 07:35:29;;;;;;;2.60;2.40;;;;;;;11.75;79.87;98311.72;4912878;29;20052;-84
2023/11/09 07:37:56;;;;;;;2.40;2.20;;;;;;;11.74;79.78;98310.91;4909883;29;20146;-87
2023/11/09 07:40:22;;;;;;;2.50;2.30;;;;;;;11.75;79.87;98316.97;4906863;29;20087;-84
2023/11/09 07:42:50;;;;;;;2.35;2.13;;;;;;;11.74;79.83;98318.81;4908369;29;20048;-84
2023/11/09 07:45:16;;;;;;;2.08;1.98;;;;;;;11.75;79.89;98320.47;4907668;29;20080;-85
2023/11/09 07:47:43;;;;;;;2.10;1.85;;;;;;;11.76;79.95;98319.50;4899769;29;20076;-84
2023/11/09 07:50:10;;;;;;;2.65;2.42;;;;;;;11.77;80.15;98302.69;4915219;29;20105;-84
2023/11/09 07:52:37;;;;;;;2.33;2.13;;;;;;;11.79;80.06;98299.94;4914809;29;20136;-83
2023/11/09 07:55:05;;;;;;;3.45;2.17;;;;;;;11.78;79.89;98307.00;4909113;29;20091;-84
2023/11/09 07:57:34;;;;;;;2.15;1.95;;;;;;;11.80;79.93;98317.41;4896991;29;20052;-85
2023/11/09 08:00:01;;;;;;;2.20;2.00;;;;;;;11.81;79.89;98316.47;4895542;29;20132;-85
2023/11/09 08:02:31;;;;;;;2.05;1.90;;;;;;;11.81;79.88;98317.28;4904333;29;20048;-85
2023/11/09 08:04:58;;;;;;;2.72;1.92;;;;;;;11.83;79.97;98307.47;4912348;29;20068;-85
2023/11/09 08:07:25;;;;;;;2.67;1.90;;;;;;;11.83;79.98;98323.28;4911750;29;20140;-83
2023/11/09 08:09:52;;;;;;;2.20;2.00;;;;;;;11.84;80.05;98322.31;4906812;29;20048;-84
2023/11/09 08:12:19;;;;;;;2.05;1.85;;;;;;;11.84;79.80;98324.94;4915357;29;20048;-83
2023/11/09 08:14:45;;;;;;;2.25;2.05;;;;;;;11.84;80.01;98324.94;4896835;29;20059;-83
2023/11/09 08:17:12;;;;;;;2.30;2.10;;;;;;;11.83;79.71;98322.44;4902865;29;20512;-84
2023/11/09 08:19:54;;;;;;;2.58;1.67;;;;;;;11.85;79.68;98323.97;4903430;29;20059;-83
2023/11/09 08:22:21;;;;;;;2.15;1.95;;;;;;;11.85;79.83;98325.78;4912368;29;20090;-83
2023/11/09 08:24:48;;;;;;;2.15;1.90;;;;;;;11.85;79.79;98326.63;4907275;29;20056;-84
2023/11/09 08:27:14;;;;;;;2.42;2.10;;;;;;;11.86;79.84;98327.47;4911076;29;20047;-83
2023/11/09 08:29:41;;;;;;;2.38;2.17;;;;;;;11.85;80.04;98331.88;4915182;29;20490;-84
2023/11/09 08:32:07;;;;;;;2.40;2.20;;;;;;;11.85;79.92;98334.53;4915406;29;20155;-83
2023/11/09 08:34:34;;;;;;;2.45;2.25;;;;;;;11.86;79.85;98333.56;4915330;29;20099;-84
2023/11/09 08:37:00;;;;;;;2.28;2.08;;;;;;;11.88;80.33;98345.78;4901508;29;20140;-84
2023/11/09 08:39:27;;;;;;;2.67;2.28;;;;;;;11.88;80.07;98341.34;4905302;29;20057;-84
2023/11/09 08:41:54;;;;;;;2.33;2.13;;;;;;;11.89;79.86;98347.44;4914915;29;20136;-83
2023/11/09 08:44:20;;;;;;;3.75;2.38;;;;;;;11.88;79.91;98341.34;4907234;29;20131;-84
2023/11/09 08:46:47;;;;;;;2.83;2.60;;;;;;;11.89;80.05;98347.44;4907135;29;20040;-83
2023/11/09 08:49:13;;;;;;;2.47;2.28;;;;;;;11.90;80.10;98349.97;4907082;29;20052;-84
2023/11/09 08:51:40;;;;;;;4.25;2.25;;;;;;;11.91;79.76;98353.41;4895506;29;20049;-84
2023/11/09 08:54:07;;;;;;;2.58;2.38;;;;;;;11.93;80.23;98354.13;4895558;29;20090;-84
2023/11/09 08:56:38;;;;;;;2.92;2.38;;;;;;;11.94;80.13;98358.44;4904378;29;20052;-84
2023/11/09 08:59:06;;;;;;;2.90;2.30;;;;;;;11.95;80.12;98347.75;4902801;29;20104;-84
2023/11/09 09:01:36;;;;;;;2.45;2.25;;;;;;;11.97;80.11;98353.72;4894814;29;20048;-84
2023/11/09 09:04:03;;;;;;;2.65;2.45;;;;;;;11.99;80.15;98361.50;4896588;29;20498;-84
2023/11/09 09:06:31;;;;;;;3.25;2.33;;;;;;;11.99;80.03;98364.16;4913531;29;20099;-83
2023/11/09 09:08:58;;;;;;;2.30;2.10;;;;;;;12.01;80.16;98359.59;4898345;29;20515;-85
2023/11/09 09:11:26;;;;;;;2.33;2.13;;;;;;;12.03;80.30;98359.47;4907167;29;20061;-84
2023/11/09 09:13:52;;;;;;;2.70;2.50;;;;;;;12.04;80.30;98356.66;4903260;29;20126;-84
2023/11/09 09:16:19;;;;;;;2.10;1.90;;;;;;;12.05;80.09;98360.16;4903474;29;20139;-84
2023/11/09 09:18:47;;;;;;;2.83;2.22;;;;;;;12.07;80.12;98364.34;4917036;29;20091;-85
2023/11/09 09:21:15;;;;;;;2.95;2.60;;;;;;;12.10;80.31;98358.81;4917309;29;20059;-84
2023/11/09 09:23:41;;;;;;;5.82;3.30;;;;;;;12.13;80.49;98349.81;4907580;29;20063;-84
2023/11/09 09:26:08;;;;;;;3.88;2.78;;;;;;;12.16;80.75;98351.34;4899420;29;20087;-83
2023/11/09 09:28:47;;;;;;;3.00;2.63;;;;;;;12.19;80.57;98344.00;4907363;29;20051;-84
2023/11/09 09:31:14;;;;;;;4.47;2.60;;;;;;;12.24;80.37;98352.38;4906992;29;20120;-84
2023/11/09 09:33:41;;;;;;;2.92;2.63;;;;;;;12.28;80.56;98347.66;4901405;29;20096;-85
2023/11/09 09:36:09;;;;;;;4.43;2.70;;;;;;;12.31;80.70;98351.81;5033306;23;20043;-75
2023/11/09 09:38:36;;;;;;;4.53;2.78;;;;;;;12.35;80.61;98351.44;4955414;28;20058;-74
2023/11/09 09:41:10;;;;;;;4.07;2.55;;;;;;;12.37;80.00;98351.28;4954964;28;20051;-75
2023/11/09 09:43:40;;;;;;;5.93;3.17;;;;;;;12.44;80.30;98346.28;4964327;28;20078;-75
2023/11/09 09:46:11;;;;;;;5.35;3.15;;;;;;;12.47;80.27;98357.44;4961637;28;20046;-76
2023/11/09 09:48:38;;;;;;;3.65;2.78;;;;;;;12.51;80.28;98350.91;4955090;28;20572;-78
2023/11/09 09:51:09;;;;;;;3.28;2.63;;;;;;;12.55;80.03;98348.84;4955010;28;20039;-77
2023/11/09 09:53:38;;;;;;;5.05;3.00;;;;;;;12.57;80.16;98343.44;4955605;28;20106;-74
2023/11/09 09:56:07;;;;;;;7.72;3.50;;;;;;;12.59;79.72;98339.69;4959983;28;20051;-78
2023/11/09 09:58:35;;;;;;;8.40;3.40;;;;;;;12.62;79.70;98349.13;4957910;28;20463;-75
2023/11/09 10:01:03;;;;;;;3.88;3.17;;;;;;;12.63;79.64;98354.28;4953701;28;20110;-71
2023/11/09 10:03:32;;;;;;;5.57;3.15;;;;;;;12.64;79.48;98361.22;4955277;28;20050;-72
2023/11/09 10:05:59;;;;;;;4.65;3.22;;;;;;;12.70;79.85;98356.34;4961603;28;20060;-74
2023/11/09 10:08:26;;;;;;;7.38;3.33;;;;;;;12.71;79.66;98352.78;4955280;28;20070;-74
2023/11/09 10:10:55;;;;;;;4.63;3.13;;;;;;;12.73;80.08;98359.59;4962518;28;20047;-76
2023/11/09 10:13:25;;;;;;;5.75;3.75;;;;;;;12.77;79.99;98368.91;4954970;28;20392;-75
2023/11/09 10:15:56;;;;;;;6.13;3.10;;;;;;;12.80;79.41;98362.50;4953973;28;20508;-75
2023/11/09 10:18:31;;;;;;;6.68;3.17;;;;;;;12.85;79.22;98380.56;4954992;28;20086;-76
2023/11/09 10:21:01;;;;;;;7.97;3.38;;;;;;;12.90;79.82;98368.63;4954959;28;20047;-77
2023/11/09 10:23:27;;;;;;;5.93;3.22;;;;;;;12.94;79.62;98365.72;4960868;28;20109;-76
2023/11/09 10:25:59;;;;;;;7.82;3.50;;;;;;;12.95;78.83;98354.19;4973040;28;20043;-76
2023/11/09 10:28:31;;;;;;;7.97;3.15;;;;;;;12.98;79.49;98365.28;4958668;28;20047;-76
2023/11/09 10:31:00;;;;;;;7.55;3.13;;;;;;;13.02;79.14;98364.06;4973014;28;20055;-75
2023/11/09 10:33:32;;;;;;;9.98;3.42;;;;;;;13.04;78.93;98361.28;4958144;28;20047;-76
2023/11/09 10:36:04;;;;;;;6.60;2.95;;;;;;;13.05;78.28;98362.97;4954622;28;20145;-76
2023/11/09 10:38:36;;;;;;;7.47;3.00;;;;;;;13.06;78.40;98359.34;4961329;28;20050;-75
2023/11/09 10:41:11;;;;;;;7.15;3.25;;;;;;;13.06;78.09;98361.13;4959405;28;20102;-75
2023/11/09 10:43:59;;;;;;;11.23;3.55;;;;;;;13.06;78.19;98356.69;4955021;28;20046;-75
2023/11/09 10:46:31;;;;;;;9.73;3.28;;;;;;;13.04;77.78;98358.63;4954542;28;20074;-78
2023/11/09 10:48:58;;;;;;;7.78;3.30;;;;;;;13.02;77.53;98363.22;4954432;28;20086;-74
2023/11/09 10:51:25;;;;;;;4.97;3.17;;;;;;;12.99;77.30;98371.41;4953499;29;20075;-75
2023/11/09 10:53:52;;;;;;;6.53;3.42;;;;;;;12.97;77.14;98368.09;4968647;28;20125;-73
2023/11/09 10:56:21;;;;;;;7.65;3.60;;;;;;;12.94;77.04;98360.44;4954278;28;20125;-75
2023/11/09 10:58:48;;;;;;;7.55;3.70;;;;;;;12.89;77.22;98358.19;4953751;28;20075;-75
2023/11/09 11:01:23;;;;;;;6.00;3.22;;;;;;;12.84;76.84;98363.91;4964904;28;20046;-73
2023/11/09 11:03:55;;;;;;;6.95;4.03;;;;;;;12.79;76.11;98350.28;4962195;28;20070;-75
2023/11/09 11:06:32;;;;;;;8.50;3.75;;;;;;;12.74;75.95;98357.75;4953721;28;20043;-73
2023/11/09 11:09:07;;;;;;;7.60;3.95;;;;;;;12.70;76.37;98351.94;4953124;28;20134;-75
2023/11/09 11:11:38;;;;;;;7.88;3.88;;;;;;;12.69;77.28;98359.97;4951844;28;20138;-74
2023/11/09 11:14:09;;;;;;;9.07;4.35;;;;;;;12.66;77.08;98358.44;4953301;28;20421;-74
2023/11/09 11:17:14;;;;;;;5.60;4.03;;;;;;;12.61;76.46;98358.03;4952075;28;20502;-73
2023/11/09 11:19:57;;;;;;;6.63;3.80;;;;;;;12.61;77.02;98348.31;4946708;28;20046;-76
2023/11/09 11:22:35;;;;;;;5.70;4.00;;;;;;;12.58;76.65;98347.72;4952550;28;20074;-73
2023/11/09 11:25:24;;;;;;;8.98;4.20;;;;;;;12.54;77.03;98352.44;4967915;28;20118;-74
2023/11/09 11:27:57;;;;;;;7.63;4.35;;;;;;;12.56;77.43;98358.41;4952205;28;20496;-75
2023/11/09 11:30:32;;;;;;;7.35;3.90;;;;;;;12.54;77.53;98352.44;4952308;28;20288;-73
2023/11/09 11:33:06;;;;;;;9.32;4.07;;;;;;;12.54;77.34;98348.97;4960923;28;20050;-72
2023/11/09 11:35:48;;;;;;;6.40;4.07;;;;;;;12.54;77.70;98344.53;4953713;28;20621;-73
2023/11/09 11:38:22;;;;;;;15.60;4.90;;;;;;;12.59;78.78;98334.41;4965022;28;20046;-73
2023/11/09 11:41:00;;;;;;;10.68;4.75;;;;;;;12.62;78.18;98344.69;4955973;28;20524;-73
2023/11/09 11:43:38;;;;;;;17.42;5.30;;;;;;;12.66;78.38;98347.03;4952266;28;20055;-74
2023/11/09 11:46:14;;;;;;;9.00;4.47;;;;;;;12.74;79.12;98339.28;4952134;28;20090;-75
2023/11/09 11:48:42;;;;;;;10.68;4.43;;;;;;;12.81;79.44;98345.69;4953483;28;20126;-74
2023/11/09 11:51:10;;;;;;;11.82;4.93;;;;;;;12.88;79.63;98345.97;4953299;28;20083;-74
2023/11/09 11:53:40;;;;;;;11.73;5.65;;;;;;;12.95;79.41;98347.09;4953044;28;20480;-76